Terminal Aerodrome Forecast
Issued by NWS

Home | Current Version | Previous Version | Text Only | Print | Product List | Glossary Off
Versions: 1 2 3 4 5 6 7 8 9 10 11 12 13 14 15 16 17 18 19 20 21 22 23 24 25 26 27 28
000 FTUS41 KBOX 191525 AAA TAFHYA TAF AMD KHYA 191525Z 1915/2012 18005KT 4SM -RA BR BKN007 OVC040 FM191630 03004KT 5SM BR OVC010 FM191800 01007KT 5SM -SHRA BR OVC010 FM192100 33006KT P6SM -SHRA OVC020 FM192300 30006KT P6SM VCSH OVC025 FM200300 30007G18KT P6SM VCSH OVC025 FM200500 31009G21KT P6SM OVC035=

USA.gov is the U.S. government's official web portal to all federal, state and local government web resources and services.